sensor_id;sensor_type;location;lat;lon;timestamp;pressure;altitude;pressure_sealevel;temperature;humidity
48517;BME280;34310;51.904;4.256;2024-01-30T00:02:24;102598.03;;;16.94;55.63
48517;BME280;34310;51.904;4.256;2024-01-30T00:04:50;102606.09;;;16.97;55.80
48517;BME280;34310;51.904;4.256;2024-01-30T00:07:17;102589.88;;;16.89;55.79
48517;BME280;34310;51.904;4.256;2024-01-30T00:09:46;102579.91;;;16.84;55.95
48517;BME280;34310;51.904;4.256;2024-01-30T00:12:13;102581.03;;;16.87;55.95
48517;BME280;34310;51.904;4.256;2024-01-30T00:14:41;102571.06;;;16.82;56.09
48517;BME280;34310;51.904;4.256;2024-01-30T00:17:08;102586.72;;;16.82;56.19
48517;BME280;34310;51.904;4.256;2024-01-30T00:19:35;102578.56;;;16.77;56.19
48517;BME280;34310;51.904;4.256;2024-01-30T00:22:02;102578.41;;;16.76;56.28
48517;BME280;34310;51.904;4.256;2024-01-30T00:24:28;102579.22;;;16.75;56.34
48517;BME280;34310;51.904;4.256;2024-01-30T00:26:55;102580.81;;;16.72;56.31
48517;BME280;34310;51.904;4.256;2024-01-30T00:29:21;102555.63;;;16.61;56.35
48517;BME280;34310;51.904;4.256;2024-01-30T00:31:48;102576.94;;;16.67;56.31
48517;BME280;34310;51.904;4.256;2024-01-30T00:34:14;102581.00;;;16.64;56.47
48517;BME280;34310;51.904;4.256;2024-01-30T00:36:41;102583.50;;;16.62;56.60
48517;BME280;34310;51.904;4.256;2024-01-30T00:39:08;102579.88;;;16.60;56.69
48517;BME280;34310;51.904;4.256;2024-01-30T00:41:35;102583.72;;;16.54;56.80
48517;BME280;34310;51.904;4.256;2024-01-30T00:44:01;102581.13;;;16.54;56.67
48517;BME280;34310;51.904;4.256;2024-01-30T00:46:28;102577.38;;;16.50;56.72
48517;BME280;34310;51.904;4.256;2024-01-30T00:48:54;102588.84;;;16.52;56.82
48517;BME280;34310;51.904;4.256;2024-01-30T00:51:21;102583.50;;;16.51;56.79
48517;BME280;34310;51.904;4.256;2024-01-30T00:53:48;102567.28;;;16.43;56.83
48517;BME280;34310;51.904;4.256;2024-01-30T00:56:14;102584.19;;;16.48;57.01
48517;BME280;34310;51.904;4.256;2024-01-30T00:58:41;102570.66;;;16.42;56.93
48517;BME280;34310;51.904;4.256;2024-01-30T01:01:07;102571.13;;;16.36;56.98
48517;BME280;34310;51.904;4.256;2024-01-30T01:03:34;102587.22;;;16.42;57.14
48517;BME280;34310;51.904;4.256;2024-01-30T01:06:01;102581.78;;;16.39;57.02
48517;BME280;34310;51.904;4.256;2024-01-30T01:08:27;102570.09;;;16.34;57.20
48517;BME280;34310;51.904;4.256;2024-01-30T01:10:54;102562.41;;;16.36;57.10
48517;BME280;34310;51.904;4.256;2024-01-30T01:13:20;102573.63;;;16.35;57.22
48517;BME280;34310;51.904;4.256;2024-01-30T01:15:47;102554.03;;;16.28;57.26
48517;BME280;34310;51.904;4.256;2024-01-30T01:18:14;102546.09;;;16.27;57.24
48517;BME280;34310;51.904;4.256;2024-01-30T01:20:40;102548.00;;;16.29;57.29
48517;BME280;34310;51.904;4.256;2024-01-30T01:23:07;102544.03;;;16.23;57.42
48517;BME280;34310;51.904;4.256;2024-01-30T01:25:33;102563.09;;;16.22;57.40
48517;BME280;34310;51.904;4.256;2024-01-30T01:28:00;102550.16;;;16.23;57.42
48517;BME280;34310;51.904;4.256;2024-01-30T01:30:27;102553.97;;;16.17;57.44
48517;BME280;34310;51.904;4.256;2024-01-30T01:32:53;102562.97;;;16.20;57.64
48517;BME280;34310;51.904;4.256;2024-01-30T01:35:21;102551.94;;;16.13;57.82
48517;BME280;34310;51.904;4.256;2024-01-30T01:37:48;102549.34;;;16.13;57.58
48517;BME280;34310;51.904;4.256;2024-01-30T01:40:15;102570.41;;;16.16;57.66
48517;BME280;34310;51.904;4.256;2024-01-30T01:42:41;102553.75;;;16.14;57.75
48517;BME280;34310;51.904;4.256;2024-01-30T01:45:08;102549.44;;;16.02;57.81
48517;BME280;34310;51.904;4.256;2024-01-30T01:47:35;102557.84;;;16.10;57.73
48517;BME280;34310;51.904;4.256;2024-01-30T01:50:02;102549.78;;;16.07;57.97
48517;BME280;34310;51.904;4.256;2024-01-30T01:52:29;102538.91;;;16.01;57.95
48517;BME280;34310;51.904;4.256;2024-01-30T01:54:56;102550.56;;;16.06;57.95
48517;BME280;34310;51.904;4.256;2024-01-30T01:57:22;102549.44;;;16.02;57.98
48517;BME280;34310;51.904;4.256;2024-01-30T01:59:49;102552.94;;;16.03;58.13
48517;BME280;34310;51.904;4.256;2024-01-30T02:02:17;102534.72;;;15.91;57.95
48517;BME280;34310;51.904;4.256;2024-01-30T02:04:45;102547.28;;;15.97;58.14
48517;BME280;34310;51.904;4.256;2024-01-30T02:07:12;102549.53;;;15.92;58.32
48517;BME280;34310;51.904;4.256;2024-01-30T02:09:39;102553.16;;;15.94;58.04
48517;BME280;34310;51.904;4.256;2024-01-30T02:12:06;102551.25;;;15.92;58.11
48517;BME280;34310;51.904;4.256;2024-01-30T02:14:33;102546.56;;;15.88;58.11
48517;BME280;34310;51.904;4.256;2024-01-30T02:16:59;102557.09;;;15.89;58.12
48517;BME280;34310;51.904;4.256;2024-01-30T02:19:26;102550.75;;;15.86;58.15
48517;BME280;34310;51.904;4.256;2024-01-30T02:21:53;102545.31;;;15.83;58.29
48517;BME280;34310;51.904;4.256;2024-01-30T02:24:19;102551.41;;;15.83;58.38
48517;BME280;34310;51.904;4.256;2024-01-30T02:26:46;102540.66;;;15.78;58.37
48517;BME280;34310;51.904;4.256;2024-01-30T02:29:13;102541.00;;;15.83;58.36
48517;BME280;34310;51.904;4.256;2024-01-30T02:31:39;102541.69;;;15.80;58.43
48517;BME280;34310;51.904;4.256;2024-01-30T02:34:06;102546.22;;;15.83;58.44
48517;BME280;34310;51.904;4.256;2024-01-30T02:36:32;102531.81;;;15.76;58.48
48517;BME280;34310;51.904;4.256;2024-01-30T02:38:59;102535.56;;;15.80;58.39
48517;BME280;34310;51.904;4.256;2024-01-30T02:41:25;102524.13;;;15.78;58.29
48517;BME280;34310;51.904;4.256;2024-01-30T02:43:52;102516.75;;;15.72;58.52
48517;BME280;34310;51.904;4.256;2024-01-30T02:46:19;102508.84;;;15.71;58.43
48517;BME280;34310;51.904;4.256;2024-01-30T02:48:45;102509.75;;;15.71;58.54
48517;BME280;34310;51.904;4.256;2024-01-30T02:51:12;102520.25;;;15.73;58.45
48517;BME280;34310;51.904;4.256;2024-01-30T02:53:38;102505.66;;;15.63;58.41
48517;BME280;34310;51.904;4.256;2024-01-30T02:56:05;102522.88;;;15.73;58.46
48517;BME280;34310;51.904;4.256;2024-01-30T02:58:32;102526.25;;;15.72;58.49
48517;BME280;34310;51.904;4.256;2024-01-30T03:00:59;102521.84;;;15.71;58.49
48517;BME280;34310;51.904;4.256;2024-01-30T03:03:25;102531.34;;;15.70;58.54
48517;BME280;34310;51.904;4.256;2024-01-30T03:05:52;102514.38;;;15.64;58.57
48517;BME280;34310;51.904;4.256;2024-01-30T03:08:18;102518.09;;;15.67;58.59
48517;BME280;34310;51.904;4.256;2024-01-30T03:10:45;102517.66;;;15.61;58.69
48517;BME280;34310;51.904;4.256;2024-01-30T03:13:12;102521.16;;;15.62;58.61
48517;BME280;34310;51.904;4.256;2024-01-30T03:15:38;102509.41;;;15.57;58.54
48517;BME280;34310;51.904;4.256;2024-01-30T03:18:05;102516.59;;;15.59;58.69
48517;BME280;34310;51.904;4.256;2024-01-30T03:20:32;102516.44;;;15.58;58.70
48517;BME280;34310;51.904;4.256;2024-01-30T03:23:00;102520.09;;;15.60;58.72
48517;BME280;34310;51.904;4.256;2024-01-30T03:25:26;102527.13;;;15.61;58.65
48517;BME280;34310;51.904;4.256;2024-01-30T03:27:53;102522.59;;;15.58;58.81
48517;BME280;34310;51.904;4.256;2024-01-30T03:30:20;102518.81;;;15.55;58.78
48517;BME280;34310;51.904;4.256;2024-01-30T03:32:46;102516.88;;;15.52;58.81
48517;BME280;34310;51.904;4.256;2024-01-30T03:35:13;102519.81;;;15.57;58.85
48517;BME280;34310;51.904;4.256;2024-01-30T03:37:40;102509.06;;;15.52;58.89
48517;BME280;34310;51.904;4.256;2024-01-30T03:40:07;102504.66;;;15.51;58.87
48517;BME280;34310;51.904;4.256;2024-01-30T03:42:33;102503.63;;;15.49;58.96
48517;BME280;34310;51.904;4.256;2024-01-30T03:45:00;102509.97;;;15.53;58.93
48517;BME280;34310;51.904;4.256;2024-01-30T03:47:26;102507.81;;;15.47;58.91
48517;BME280;34310;51.904;4.256;2024-01-30T03:49:53;102515.72;;;15.48;58.96
48517;BME280;34310;51.904;4.256;2024-01-30T03:52:20;102508.94;;;15.50;58.95
48517;BME280;34310;51.904;4.256;2024-01-30T03:54:47;102516.63;;;15.49;58.89
48517;BME280;34310;51.904;4.256;2024-01-30T03:57:13;102499.22;;;15.48;59.09
48517;BME280;34310;51.904;4.256;2024-01-30T03:59:42;102500.56;;;15.43;58.97
48517;BME280;34310;51.904;4.256;2024-01-30T04:02:10;102501.47;;;15.43;58.99
48517;BME280;34310;51.904;4.256;2024-01-30T04:04:37;102510.19;;;15.44;59.08
48517;BME280;34310;51.904;4.256;2024-01-30T04:07:04;102505.53;;;15.40;59.09
48517;BME280;34310;51.904;4.256;2024-01-30T04:09:30;102509.38;;;15.45;59.06
48517;BME280;34310;51.904;4.256;2024-01-30T04:11:57;102502.81;;;15.38;59.16
48517;BME280;34310;51.904;4.256;2024-01-30T04:14:24;102503.16;;;15.43;59.10
48517;BME280;34310;51.904;4.256;2024-01-30T04:16:50;102501.34;;;15.42;59.15
48517;BME280;34310;51.904;4.256;2024-01-30T04:19:17;102495.22;;;15.41;59.12
48517;BME280;34310;51.904;4.256;2024-01-30T04:21:43;102491.72;;;15.41;59.20
48517;BME280;34310;51.904;4.256;2024-01-30T04:24:10;102492.16;;;15.35;59.05
48517;BME280;34310;51.904;4.256;2024-01-30T04:26:37;102496.03;;;15.40;59.10
48517;BME280;34310;51.904;4.256;2024-01-30T04:29:03;102490.81;;;15.40;59.13
48517;BME280;34310;51.904;4.256;2024-01-30T04:31:30;102489.91;;;15.40;59.14
48517;BME280;34310;51.904;4.256;2024-01-30T04:33:56;102480.28;;;15.39;59.18
48517;BME280;34310;51.904;4.256;2024-01-30T04:36:23;102477.22;;;15.33;59.13
48517;BME280;34310;51.904;4.256;2024-01-30T04:38:50;102469.13;;;15.30;59.16
48517;BME280;34310;51.904;4.256;2024-01-30T04:41:16;102476.03;;;15.29;59.18
48517;BME280;34310;51.904;4.256;2024-01-30T04:43:43;102462.00;;;15.27;59.15
48517;BME280;34310;51.904;4.256;2024-01-30T04:46:09;102481.75;;;15.35;59.12
48517;BME280;34310;51.904;4.256;2024-01-30T04:48:36;102479.81;;;15.33;59.20
48517;BME280;34310;51.904;4.256;2024-01-30T04:51:03;102480.56;;;15.32;59.11
48517;BME280;34310;51.904;4.256;2024-01-30T04:53:30;102471.50;;;15.27;59.16
48517;BME280;34310;51.904;4.256;2024-01-30T04:55:57;102480.47;;;15.30;59.21
48517;BME280;34310;51.904;4.256;2024-01-30T04:58:23;102474.34;;;15.30;59.26
48517;BME280;34310;51.904;4.256;2024-01-30T05:00:50;102472.19;;;15.24;59.29
48517;BME280;34310;51.904;4.256;2024-01-30T05:03:18;102481.91;;;15.27;59.28
48517;BME280;34310;51.904;4.256;2024-01-30T05:05:45;102483.19;;;15.32;59.35
48517;BME280;34310;51.904;4.256;2024-01-30T05:08:12;102483.06;;;15.30;59.35
48517;BME280;34310;51.904;4.256;2024-01-30T05:10:38;102487.47;;;15.31;59.28
48517;BME280;34310;51.904;4.256;2024-01-30T05:13:05;102485.31;;;15.26;59.22
48517;BME280;34310;51.904;4.256;2024-01-30T05:15:32;102492.56;;;15.30;59.37
48517;BME280;34310;51.904;4.256;2024-01-30T05:17:58;102481.25;;;15.29;59.27
48517;BME280;34310;51.904;4.256;2024-01-30T05:20:25;102480.34;;;15.29;59.46
48517;BME280;34310;51.904;4.256;2024-01-30T05:22:51;102474.91;;;15.26;59.34
48517;BME280;34310;51.904;4.256;2024-01-30T05:25:18;102470.38;;;15.23;59.41
48517;BME280;34310;51.904;4.256;2024-01-30T05:27:45;102471.50;;;15.27;59.35
48517;BME280;34310;51.904;4.256;2024-01-30T05:30:12;102478.28;;;15.25;59.39
48517;BME280;34310;51.904;4.256;2024-01-30T05:32:38;102479.63;;;15.19;59.54
48517;BME280;34310;51.904;4.256;2024-01-30T05:35:05;102480.88;;;15.25;59.25
48517;BME280;34310;51.904;4.256;2024-01-30T05:37:32;102492.09;;;15.24;59.20
48517;BME280;34310;51.904;4.256;2024-01-30T05:39:58;102494.69;;;15.24;59.43
48517;BME280;34310;51.904;4.256;2024-01-30T05:42:26;102496.38;;;15.23;59.39
48517;BME280;34310;51.904;4.256;2024-01-30T05:44:53;102497.97;;;15.21;59.41
48517;BME280;34310;51.904;4.256;2024-01-30T05:47:19;102499.78;;;15.22;59.42
48517;BME280;34310;51.904;4.256;2024-01-30T05:49:46;102490.81;;;15.18;59.48
48517;BME280;34310;51.904;4.256;2024-01-30T05:52:13;102498.75;;;15.20;59.47
48517;BME280;34310;51.904;4.256;2024-01-30T05:54:39;102488.91;;;15.16;59.40
48517;BME280;34310;51.904;4.256;2024-01-30T05:57:06;102503.16;;;15.21;59.47
48517;BME280;34310;51.904;4.256;2024-01-30T05:59:32;102497.72;;;15.18;59.51
48517;BME280;34310;51.904;4.256;2024-01-30T06:01:59;102487.75;;;15.12;59.56
48517;BME280;34310;51.904;4.256;2024-01-30T06:04:26;102497.38;;;15.13;59.44
48517;BME280;34310;51.904;4.256;2024-01-30T06:06:53;102489.44;;;15.12;59.65
48517;BME280;34310;51.904;4.256;2024-01-30T06:09:19;102492.84;;;15.11;59.60
48517;BME280;34310;51.904;4.256;2024-01-30T06:11:46;102501.00;;;15.15;59.58
48517;BME280;34310;51.904;4.256;2024-01-30T06:14:13;102500.09;;;15.15;59.64
48517;BME280;34310;51.904;4.256;2024-01-30T06:16:39;102499.19;;;15.14;59.63
48517;BME280;34310;51.904;4.256;2024-01-30T06:19:06;102482.31;;;15.09;59.58
48517;BME280;34310;51.904;4.256;2024-01-30T06:21:32;102493.63;;;15.10;59.62
48517;BME280;34310;51.904;4.256;2024-01-30T06:23:59;102488.19;;;15.07;59.65
48517;BME280;34310;51.904;4.256;2024-01-30T06:26:25;102499.84;;;15.12;59.68
48517;BME280;34310;51.904;4.256;2024-01-30T06:28:52;102492.47;;;15.06;59.68
48517;BME280;34310;51.904;4.256;2024-01-30T06:31:19;102488.84;;;15.04;59.78
48517;BME280;34310;51.904;4.256;2024-01-30T06:33:49;102501.06;;;15.05;59.71
48517;BME280;34310;51.904;4.256;2024-01-30T06:36:16;102512.75;;;15.10;59.68
48517;BME280;34310;51.904;4.256;2024-01-30T06:38:42;102515.34;;;15.10;59.70
48517;BME280;34310;51.904;4.256;2024-01-30T06:41:09;102499.25;;;15.04;59.72
48517;BME280;34310;51.904;4.256;2024-01-30T06:43:35;102490.81;;;14.97;59.71
48517;BME280;34310;51.904;4.256;2024-01-30T06:46:02;102511.59;;;15.07;59.73
48517;BME280;34310;51.904;4.256;2024-01-30T06:48:29;102505.59;;;15.08;59.80
48517;BME280;34310;51.904;4.256;2024-01-30T06:50:56;102499.88;;;15.02;59.82
48517;BME280;34310;51.904;4.256;2024-01-30T06:53:23;102506.41;;;15.07;59.89
48517;BME280;34310;51.904;4.256;2024-01-30T06:55:51;102508.88;;;15.05;59.90
48517;BME280;34310;51.904;4.256;2024-01-30T06:58:17;102506.28;;;15.05;59.88
48517;BME280;34310;51.904;4.256;2024-01-30T07:00:44;102503.28;;;15.01;59.71
48517;BME280;34310;51.904;4.256;2024-01-30T07:03:11;102509.50;;;15.03;59.81
48517;BME280;34310;51.904;4.256;2024-01-30T07:05:37;102513.03;;;15.03;59.80
48517;BME280;34310;51.904;4.256;2024-01-30T07:08:04;102515.63;;;15.03;59.90
48517;BME280;34310;51.904;4.256;2024-01-30T07:10:31;102495.78;;;14.94;59.98
48517;BME280;34310;51.904;4.256;2024-01-30T07:12:57;102526.81;;;15.02;59.89
48517;BME280;34310;51.904;4.256;2024-01-30T07:15:24;102518.88;;;15.01;59.94
48517;BME280;34310;51.904;4.256;2024-01-30T07:17:50;102515.50;;;15.02;59.82
48517;BME280;34310;51.904;4.256;2024-01-30T07:20:17;102519.56;;;14.98;59.98
48517;BME280;34310;51.904;4.256;2024-01-30T07:22:44;102522.28;;;15.00;59.89
48517;BME280;34310;51.904;4.256;2024-01-30T07:25:11;102536.97;;;14.99;59.88
48517;BME280;34310;51.904;4.256;2024-01-30T07:27:38;102541.16;;;14.97;59.86
48517;BME280;34310;51.904;4.256;2024-01-30T07:30:05;102545.69;;;15.00;60.12
48517;BME280;34310;51.904;4.256;2024-01-30T07:32:31;102548.28;;;15.00;59.97
48517;BME280;34310;51.904;4.256;2024-01-30T07:34:58;102542.72;;;14.95;60.16
48517;BME280;34310;51.904;4.256;2024-01-30T07:37:34;102555.19;;;14.99;59.99
48517;BME280;34310;51.904;4.256;2024-01-30T07:40:02;102559.47;;;14.99;59.88
48517;BME280;34310;51.904;4.256;2024-01-30T07:42:28;102555.84;;;14.97;60.06
48517;BME280;34310;51.904;4.256;2024-01-30T07:44:55;102545.06;;;14.92;59.93
48517;BME280;34310;51.904;4.256;2024-01-30T07:47:22;102547.69;;;14.92;60.16
48517;BME280;34310;51.904;4.256;2024-01-30T07:49:48;102545.63;;;14.88;60.23
48517;BME280;34310;51.904;4.256;2024-01-30T07:52:15;102562.63;;;14.95;60.30
48517;BME280;34310;51.904;4.256;2024-01-30T07:54:48;102563.66;;;14.97;60.51
48517;BME280;34310;51.904;4.256;2024-01-30T07:57:14;102574.16;;;14.98;60.69
48517;BME280;34310;51.904;4.256;2024-01-30T07:59:44;102561.72;;;14.94;60.70
48517;BME280;34310;51.904;4.256;2024-01-30T08:02:15;102575.09;;;14.99;60.82
48517;BME280;34310;51.904;4.256;2024-01-30T08:04:41;102568.59;;;14.94;60.90
48517;BME280;34310;51.904;4.256;2024-01-30T08:07:08;102583.56;;;14.96;60.89
48517;BME280;34310;51.904;4.256;2024-01-30T08:09:35;102569.16;;;14.90;60.88
48517;BME280;34310;51.904;4.256;2024-01-30T08:12:02;102594.97;;;14.98;60.93
48517;BME280;34310;51.904;4.256;2024-01-30T08:14:31;102584.22;;;14.94;61.08
48517;BME280;34310;51.904;4.256;2024-01-30T08:16:58;102584.88;;;14.91;61.15
48517;BME280;34310;51.904;4.256;2024-01-30T08:19:24;102598.63;;;15.00;61.12
48517;BME280;34310;51.904;4.256;2024-01-30T08:21:51;102600.31;;;15.00;61.19
48517;BME280;34310;51.904;4.256;2024-01-30T08:24:18;102594.84;;;14.97;61.06
48517;BME280;34310;51.904;4.256;2024-01-30T08:26:44;102592.38;;;14.98;61.44
48517;BME280;34310;51.904;4.256;2024-01-30T08:29:11;102585.91;;;14.93;61.24
48517;BME280;34310;51.904;4.256;2024-01-30T08:31:38;102587.72;;;14.94;61.28
48517;BME280;34310;51.904;4.256;2024-01-30T08:34:04;102569.94;;;14.88;61.18
48517;BME280;34310;51.904;4.256;2024-01-30T08:36:31;102585.47;;;14.99;61.20
48517;BME280;34310;51.904;4.256;2024-01-30T08:38:58;102580.28;;;14.99;61.14
48517;BME280;34310;51.904;4.256;2024-01-30T08:41:29;102587.59;;;14.93;61.45
48517;BME280;34310;51.904;4.256;2024-01-30T08:43:56;102598.50;;;14.99;61.45
48517;BME280;34310;51.904;4.256;2024-01-30T08:46:23;102576.03;;;14.89;61.27
48517;BME280;34310;51.904;4.256;2024-01-30T08:48:50;102608.91;;;14.99;61.55
48517;BME280;34310;51.904;4.256;2024-01-30T08:51:17;102593.72;;;14.93;61.49
48517;BME280;34310;51.904;4.256;2024-01-30T08:53:43;102590.97;;;14.92;61.42
48517;BME280;34310;51.904;4.256;2024-01-30T08:56:10;102601.75;;;14.96;61.37
48517;BME280;34310;51.904;4.256;2024-01-30T08:58:36;102607.50;;;14.92;61.49
48517;BME280;34310;51.904;4.256;2024-01-30T09:01:03;102601.16;;;14.88;61.50
48517;BME280;34310;51.904;4.256;2024-01-30T09:03:30;102619.97;;;14.96;61.47
48517;BME280;34310;51.904;4.256;2024-01-30T09:05:56;102619.84;;;14.95;61.36
48517;BME280;34310;51.904;4.256;2024-01-30T09:08:23;102609.72;;;14.87;61.41
48517;BME280;34310;51.904;4.256;2024-01-30T09:10:50;102618.03;;;14.94;61.46
48517;BME280;34310;51.904;4.256;2024-01-30T09:13:16;102631.16;;;14.95;61.51
48517;BME280;34310;51.904;4.256;2024-01-30T09:15:43;102614.81;;;14.86;61.62
48517;BME280;34310;51.904;4.256;2024-01-30T09:18:10;102628.44;;;14.94;61.48
48517;BME280;34310;51.904;4.256;2024-01-30T09:20:36;102633.38;;;14.91;61.48
48517;BME280;34310;51.904;4.256;2024-01-30T09:23:03;102646.38;;;14.91;61.55
48517;BME280;34310;51.904;4.256;2024-01-30T09:25:30;102636.88;;;14.91;61.47
48517;BME280;34310;51.904;4.256;2024-01-30T09:27:56;102633.63;;;14.94;61.37
48517;BME280;34310;51.904;4.256;2024-01-30T09:30:23;102622.97;;;14.91;61.64
48517;BME280;34310;51.904;4.256;2024-01-30T09:32:50;102638.47;;;14.89;61.37
48517;BME280;34310;51.904;4.256;2024-01-30T09:35:16;102670.94;;;14.94;61.30
48517;BME280;34310;51.904;4.256;2024-01-30T09:37:43;102671.59;;;14.92;61.27
48517;BME280;34310;51.904;4.256;2024-01-30T09:40:10;102670.03;;;14.94;61.39
48517;BME280;34310;51.904;4.256;2024-01-30T09:42:37;102668.75;;;14.88;61.36
48517;BME280;34310;51.904;4.256;2024-01-30T09:45:05;102693.44;;;14.94;61.41
48517;BME280;34310;51.904;4.256;2024-01-30T09:47:41;102674.38;;;14.83;61.51
48517;BME280;34310;51.904;4.256;2024-01-30T09:50:10;102678.25;;;14.88;61.49
48517;BME280;34310;51.904;4.256;2024-01-30T09:52:37;102682.00;;;14.92;61.26
48517;BME280;34310;51.904;4.256;2024-01-30T09:55:04;102691.63;;;14.93;61.42
48517;BME280;34310;51.904;4.256;2024-01-30T09:57:31;102690.59;;;14.91;61.50
48517;BME280;34310;51.904;4.256;2024-01-30T09:59:58;102685.28;;;14.89;61.55
48517;BME280;34310;51.904;4.256;2024-01-30T10:02:24;102693.97;;;14.90;61.34
48517;BME280;34310;51.904;4.256;2024-01-30T10:04:52;102694.22;;;14.93;61.31
48517;BME280;34310;51.904;4.256;2024-01-30T10:07:19;102697.38;;;14.88;61.35
48517;BME280;34310;51.904;4.256;2024-01-30T10:09:46;102693.19;;;14.91;61.36
48517;BME280;34310;51.904;4.256;2024-01-30T10:12:13;102704.38;;;14.90;61.48
48517;BME280;34310;51.904;4.256;2024-01-30T10:14:40;102705.28;;;14.90;61.38
48517;BME280;34310;51.904;4.256;2024-01-30T10:17:08;102707.75;;;14.88;61.43
48517;BME280;34310;51.904;4.256;2024-01-30T10:19:47;102689.06;;;14.82;61.44
48517;BME280;34310;51.904;4.256;2024-01-30T10:22:14;102701.78;;;14.90;61.45
48517;BME280;34310;51.904;4.256;2024-01-30T10:24:40;102718.16;;;14.88;61.46
48517;BME280;34310;51.904;4.256;2024-01-30T10:27:07;102716.47;;;14.89;61.41
48517;BME280;34310;51.904;4.256;2024-01-30T10:29:33;102723.38;;;14.88;61.50
48517;BME280;34310;51.904;4.256;2024-01-30T10:32:05;102710.78;;;14.83;61.47
48517;BME280;34310;51.904;4.256;2024-01-30T10:34:32;102723.13;;;14.85;61.65
48517;BME280;34310;51.904;4.256;2024-01-30T10:37:07;102729.34;;;14.87;61.55
48517;BME280;34310;51.904;4.256;2024-01-30T10:39:38;102720.16;;;14.81;61.61
48517;BME280;34310;51.904;4.256;2024-01-30T10:42:05;102729.75;;;14.82;61.37
48517;BME280;34310;51.904;4.256;2024-01-30T10:47:28;102719.09;;;14.79;61.44
48517;BME280;34310;51.904;4.256;2024-01-30T10:49:56;102712.75;;;14.75;61.64
48517;BME280;34310;51.904;4.256;2024-01-30T10:52:24;102736.91;;;14.84;61.48
48517;BME280;34310;51.904;4.256;2024-01-30T10:54:51;102734.19;;;14.83;61.50
48517;BME280;34310;51.904;4.256;2024-01-30T10:57:18;102725.88;;;14.77;61.58
48517;BME280;34310;51.904;4.256;2024-01-30T10:59:44;102729.25;;;14.76;61.43
48517;BME280;34310;51.904;4.256;2024-01-30T11:02:11;102737.19;;;14.77;61.56
48517;BME280;34310;51.904;4.256;2024-01-30T11:04:41;102734.84;;;14.80;61.53
48517;BME280;34310;51.904;4.256;2024-01-30T11:07:17;102752.13;;;14.80;61.70
48517;BME280;34310;51.904;4.256;2024-01-30T11:09:51;102752.00;;;14.78;61.45
48517;BME280;34310;51.904;4.256;2024-01-30T11:12:23;102751.22;;;14.79;61.46
48517;BME280;34310;51.904;4.256;2024-01-30T11:15:07;102742.38;;;14.77;61.91
48517;BME280;34310;51.904;4.256;2024-01-30T11:20:22;102754.59;;;14.78;61.61
48517;BME280;34310;51.904;4.256;2024-01-30T11:22:53;102750.69;;;14.73;61.70
48517;BME280;34310;51.904;4.256;2024-01-30T11:25:21;102735.06;;;14.73;61.77
48517;BME280;34310;51.904;4.256;2024-01-30T11:27:52;102739.66;;;14.76;61.81
48517;BME280;34310;51.904;4.256;2024-01-30T11:30:30;102726.88;;;14.69;61.67
48517;BME280;34310;51.904;4.256;2024-01-30T11:33:09;102760.59;;;14.77;61.78
48517;BME280;34310;51.904;4.256;2024-01-30T11:35:40;102745.22;;;14.70;61.88
48517;BME280;34310;51.904;4.256;2024-01-30T11:38:09;102733.00;;;14.69;61.64
48517;BME280;34310;51.904;4.256;2024-01-30T11:40:37;102737.84;;;14.75;61.87
48517;BME280;34310;51.904;4.256;2024-01-30T11:43:06;102749.28;;;14.77;61.83
48517;BME280;34310;51.904;4.256;2024-01-30T11:45:34;102735.97;;;14.74;61.83
48517;BME280;34310;51.904;4.256;2024-01-30T11:48:02;102758.75;;;14.76;61.61
48517;BME280;34310;51.904;4.256;2024-01-30T11:50:33;102735.47;;;14.68;61.83
48517;BME280;34310;51.904;4.256;2024-01-30T11:53:01;102752.50;;;14.74;61.89
48517;BME280;34310;51.904;4.256;2024-01-30T11:55:29;102741.47;;;14.67;61.93
48517;BME280;34310;51.904;4.256;2024-01-30T11:58:00;102757.69;;;14.74;61.77
48517;BME280;34310;51.904;4.256;2024-01-30T12:00:27;102756.16;;;14.76;61.83
48517;BME280;34310;51.904;4.256;2024-01-30T12:02:55;102755.75;;;14.72;61.89
48517;BME280;34310;51.904;4.256;2024-01-30T12:05:22;102766.44;;;14.75;61.89
48517;BME280;34310;51.904;4.256;2024-01-30T12:07:49;102760.28;;;14.74;61.90
48517;BME280;34310;51.904;4.256;2024-01-30T12:10:16;102775.28;;;14.77;61.89
48517;BME280;34310;51.904;4.256;2024-01-30T12:12:45;102761.38;;;14.76;61.76
48517;BME280;34310;51.904;4.256;2024-01-30T12:15:13;102765.66;;;14.76;61.86
48517;BME280;34310;51.904;4.256;2024-01-30T12:17:40;102769.66;;;14.72;61.85
48517;BME280;34310;51.904;4.256;2024-01-30T12:20:09;102770.44;;;14.71;61.75
48517;BME280;34310;51.904;4.256;2024-01-30T12:22:40;102766.53;;;14.66;61.85
48517;BME280;34310;51.904;4.256;2024-01-30T12:25:08;102780.19;;;14.74;61.84
48517;BME280;34310;51.904;4.256;2024-01-30T12:27:36;102787.06;;;14.73;61.83
48517;BME280;34310;51.904;4.256;2024-01-30T12:30:06;102787.06;;;14.73;61.82
48517;BME280;34310;51.904;4.256;2024-01-30T12:32:38;102785.91;;;14.70;61.81
48517;BME280;34310;51.904;4.256;2024-01-30T12:35:13;102778.50;;;14.64;61.84
48517;BME280;34310;51.904;4.256;2024-01-30T12:37:42;102787.47;;;14.68;61.84
48517;BME280;34310;51.904;4.256;2024-01-30T12:40:10;102794.38;;;14.67;62.04
48517;BME280;34310;51.904;4.256;2024-01-30T12:42:37;102785.66;;;14.67;61.77
48517;BME280;34310;51.904;4.256;2024-01-30T12:45:05;102791.88;;;14.69;61.89
48517;BME280;34310;51.904;4.256;2024-01-30T12:47:32;102787.34;;;14.66;62.00
48517;BME280;34310;51.904;4.256;2024-01-30T12:49:58;102798.53;;;14.65;61.86
48517;BME280;34310;51.904;4.256;2024-01-30T12:52:25;102802.94;;;14.66;61.91
48517;BME280;34310;51.904;4.256;2024-01-30T12:54:52;102796.72;;;14.64;61.90
48517;BME280;34310;51.904;4.256;2024-01-30T12:57:19;102802.03;;;14.66;61.92